Strait of Georgia - north of Nanaimo: Past 24 Hour Conditions

 

Victoria Int'l Airport

09:00 PM PDT 28 July 2014
This table is a summary of hourly weather conditions for the past 24 hours.
Date / Time
(PDT)
Wind(knots) Conditions Visibility(km) Pressure(kPa) Air tempC) Relative humidity(%) Dew pointC) Humidex
28 July 2014
21:00 E 4 Mainly Clear 48 101.8 18 65 12 *
20:00 ENE 4 Mainly Sunny 48 101.8 21 58 12 *
19:00 E 5 Mainly Sunny 48 101.8 23 51 13 26
18:00 ESE 7 Mainly Sunny 48 101.8 23 49 12 26
17:00 ESE 9 Mainly Sunny 48 101.8 25 45 13 28
16:00 ESE 10 Mainly Sunny 48 101.9 26 45 14 29
15:00 ESE 7 Mainly Sunny 48 101.9 27 43 13 29
14:00 ENE 6 Sunny 48 101.9 26 47 14 29
13:00 E 6 Sunny 48 102.0 25 50 14 29
12:00 E 5 Sunny 48 102.0 24 56 14 27
11:00 NE 6 Sunny 48 102.0 24 55 14 27
10:00 NE 5 Sunny 48 102.0 23 61 15 26
9:00 WNW 5 Sunny 48 102.1 21 59 13 *
8:00 W 5 Mainly Sunny 48 102.1 19 72 13 *
7:00 W 5 Mainly Sunny 48 102.0 17 83 14 *
6:00 W 4 Sunny 48 102.0 14 89 12 *
5:00 WSW 2 Clear 48 102.0 15 85 13 *
4:00 WSW 4 Clear 48 102.0 14 84 12 *
3:00 W 3 Clear 48 101.9 14 83 11 *
2:00 calm Clear 48 101.9 14 81 11 *
1:00 NNW 2 Clear 48 101.9 16 76 12 *
0:00 N 1 Clear 48 101.9 16 72 11 *
27 July 2014
23:00 N 1 Clear 48 101.9 17 73 12 *
22:00 N 1 Clear 48 101.9 19 65 12 *
21:00 NNE 2 Mainly Clear 48 101.9 22 55 12 *
 
Map of Pacific - Georgia Basin marine weather areas Tsawwassen Ferry Terminal Sentry Shoal - 46131 Halibut Bank - 46146 La Perouse Bank - 46206 Discovery Island Esquimalt Harbour Kelp Reefs Malahat Race Rocks Lightstation Saturna Island Sheringham Point University of Victoria Victoria Gonzales Victoria Int'l Airport Ballenas Islands Campbell River Airport Comox Airport Entrance Island Fanny Island Nanaimo Airport Sisters Islets Estevan Point Tofino Airport Grief Point Powell River Airport Sechelt Point Atkinson Sand Heads Lightstation Vancouver Harbour Vancouver Int'l Airport West Vancouver Port Alberni Howe Sound - Pam Rocks Squamish Airport